createdAt,value
2018-11-25T00:00:26.691Z,0.00
2018-11-25T00:01:26.684Z,0.00
2018-11-25T00:02:26.676Z,0.00
2018-11-25T00:03:26.667Z,0.00
2018-11-25T00:04:26.660Z,0.00
2018-11-25T00:05:26.651Z,0.00
2018-11-25T00:06:26.644Z,0.00
2018-11-25T00:07:30.201Z,0.00
2018-11-25T00:08:26.630Z,0.00
2018-11-25T00:09:26.622Z,0.00
2018-11-25T00:10:26.615Z,0.00
2018-11-25T00:11:26.606Z,0.00
2018-11-25T00:12:26.599Z,0.00
2018-11-25T00:13:26.592Z,0.00
2018-11-25T00:14:26.584Z,0.00
2018-11-25T00:15:26.577Z,0.00
2018-11-25T00:16:26.568Z,0.00
2018-11-25T00:17:26.560Z,0.00
2018-11-25T00:18:26.553Z,0.00
2018-11-25T00:19:26.543Z,0.00
2018-11-25T00:20:26.537Z,0.00
2018-11-25T00:21:26.533Z,0.00
2018-11-25T00:22:26.522Z,0.00
2018-11-25T00:23:26.515Z,0.00
2018-11-25T00:24:26.506Z,0.00
2018-11-25T00:25:26.498Z,0.00
2018-11-25T00:26:26.490Z,0.00
2018-11-25T00:27:26.482Z,0.00
2018-11-25T00:28:26.477Z,0.00
2018-11-25T00:29:26.467Z,0.00
2018-11-25T00:30:26.463Z,0.00
2018-11-25T00:31:26.460Z,0.00
2018-11-25T00:32:26.444Z,0.00
2018-11-25T00:33:26.436Z,0.00
2018-11-25T00:34:26.428Z,0.00
2018-11-25T00:35:26.419Z,0.00
2018-11-25T00:36:26.411Z,0.00
2018-11-25T00:37:26.405Z,0.00
2018-11-25T00:38:26.396Z,0.00
2018-11-25T00:39:26.389Z,0.00
2018-11-25T00:40:26.380Z,0.00
2018-11-25T00:41:26.375Z,0.00
2018-11-25T00:42:26.367Z,0.00
2018-11-25T00:43:26.361Z,0.00
2018-11-25T00:44:26.376Z,0.00
2018-11-25T00:45:26.342Z,0.00
2018-11-25T00:46:26.335Z,0.00
2018-11-25T00:47:26.327Z,0.00
2018-11-25T00:48:26.321Z,0.00
2018-11-25T00:49:26.312Z,0.00
2018-11-25T00:50:26.304Z,0.00
2018-11-25T00:51:26.296Z,0.00
2018-11-25T00:52:26.287Z,0.00
2018-11-25T00:53:26.280Z,0.00
2018-11-25T00:54:26.273Z,0.00
2018-11-25T00:55:26.265Z,0.00
2018-11-25T00:56:26.256Z,0.00
2018-11-25T00:57:26.250Z,0.00
2018-11-25T00:58:26.241Z,0.00
2018-11-25T00:59:26.233Z,0.00
2018-11-25T01:00:26.226Z,0.00
2018-11-25T01:01:26.218Z,0.00
2018-11-25T01:02:26.211Z,0.00
2018-11-25T01:03:26.202Z,0.00
2018-11-25T01:04:26.198Z,0.00
2018-11-25T01:05:26.188Z,0.00
2018-11-25T01:06:26.180Z,0.00
2018-11-25T01:07:26.171Z,0.00
2018-11-25T01:08:26.166Z,0.00
2018-11-25T01:09:26.157Z,0.00
2018-11-25T01:10:26.149Z,0.00
2018-11-25T01:11:26.140Z,0.00
2018-11-25T01:12:26.132Z,0.00
2018-11-25T01:13:26.124Z,0.00
2018-11-25T01:14:26.117Z,0.00
2018-11-25T01:15:26.109Z,0.00
2018-11-25T01:16:26.103Z,0.00
2018-11-25T01:17:26.095Z,0.00
2018-11-25T01:18:26.087Z,0.00
2018-11-25T01:19:26.078Z,0.00
2018-11-25T01:20:26.111Z,0.00
2018-11-25T01:21:26.063Z,0.00
2018-11-25T01:22:26.055Z,0.00
2018-11-25T01:23:26.046Z,0.00
2018-11-25T01:24:26.044Z,0.00
2018-11-25T01:25:26.031Z,0.00
2018-11-25T01:26:26.026Z,0.00
2018-11-25T01:27:26.014Z,0.00
2018-11-25T01:28:26.007Z,0.00
2018-11-25T01:29:26.000Z,0.00
2018-11-25T01:30:25.992Z,0.00
2018-11-25T01:31:25.986Z,0.00
2018-11-25T01:32:25.978Z,0.00
2018-11-25T01:33:25.967Z,0.00
2018-11-25T01:34:25.963Z,0.00
2018-11-25T01:35:25.953Z,0.00
2018-11-25T01:36:25.945Z,0.00
2018-11-25T01:37:25.938Z,0.00
2018-11-25T01:38:25.931Z,0.00
2018-11-25T01:39:25.923Z,0.00
2018-11-25T01:40:25.912Z,0.00
2018-11-25T01:41:25.907Z,0.00
2018-11-25T01:42:25.899Z,0.00
2018-11-25T01:43:25.891Z,0.00
2018-11-25T01:44:25.883Z,0.00
2018-11-25T01:45:25.875Z,0.00
2018-11-25T01:46:25.869Z,0.00
2018-11-25T01:47:25.860Z,0.00
2018-11-25T01:48:25.852Z,0.00
2018-11-25T01:49:25.845Z,0.00
2018-11-25T01:50:25.837Z,0.00
2018-11-25T01:51:25.827Z,0.00
2018-11-25T01:52:25.822Z,0.00
2018-11-25T01:53:25.815Z,0.00
2018-11-25T01:54:25.818Z,0.00
2018-11-25T01:55:25.797Z,0.00
2018-11-25T01:56:25.793Z,0.00
2018-11-25T01:57:25.782Z,0.00
2018-11-25T01:58:25.774Z,0.00
2018-11-25T01:59:25.766Z,0.00
2018-11-25T02:00:25.776Z,0.00
2018-11-25T02:01:25.751Z,0.00
2018-11-25T02:02:25.742Z,0.00
2018-11-25T02:03:25.735Z,0.00
2018-11-25T02:04:25.731Z,0.00
2018-11-25T02:05:25.719Z,0.00
2018-11-25T02:06:25.716Z,0.00
2018-11-25T02:07:26.105Z,0.00
2018-11-25T02:08:25.697Z,0.00
2018-11-25T02:09:25.690Z,0.00
2018-11-25T02:10:25.681Z,0.00
2018-11-25T02:11:25.672Z,0.00
2018-11-25T02:12:25.665Z,0.00
2018-11-25T02:13:25.657Z,0.00
2018-11-25T02:14:25.650Z,0.00
2018-11-25T02:15:25.640Z,0.00
2018-11-25T02:16:25.634Z,0.00
2018-11-25T02:17:25.625Z,0.00
2018-11-25T02:18:25.621Z,0.00
2018-11-25T02:19:25.610Z,0.00
2018-11-25T02:20:25.607Z,0.00
2018-11-25T02:21:25.596Z,0.00
2018-11-25T02:22:25.587Z,0.00
2018-11-25T02:23:25.578Z,0.00
2018-11-25T02:24:25.573Z,0.00
2018-11-25T02:25:25.563Z,0.00
2018-11-25T02:26:25.556Z,0.00
2018-11-25T02:27:25.547Z,0.00
2018-11-25T02:28:25.539Z,0.00
2018-11-25T02:29:25.532Z,0.00
2018-11-25T02:30:25.524Z,0.00
2018-11-25T02:31:25.515Z,0.00
2018-11-25T02:32:25.508Z,0.00
2018-11-25T02:33:25.500Z,0.00
2018-11-25T02:34:25.494Z,0.00
2018-11-25T02:35:25.484Z,0.00
2018-11-25T02:36:25.477Z,0.00
2018-11-25T02:37:25.469Z,0.00
2018-11-25T02:38:25.460Z,0.00
2018-11-25T02:39:25.452Z,0.00
2018-11-25T02:40:25.448Z,0.00
2018-11-25T02:41:25.438Z,0.00
2018-11-25T02:42:25.433Z,0.00
2018-11-25T02:43:25.423Z,0.00
2018-11-25T02:44:25.419Z,0.00
2018-11-25T02:45:25.408Z,0.00
2018-11-25T02:46:25.399Z,0.00
2018-11-25T02:47:25.391Z,0.00
2018-11-25T02:48:25.382Z,0.00
2018-11-25T02:49:25.377Z,0.00
2018-11-25T02:50:25.382Z,0.00
2018-11-25T02:51:25.360Z,0.00
2018-11-25T02:52:25.352Z,0.00
2018-11-25T02:53:25.346Z,0.00
2018-11-25T02:54:25.340Z,0.00
2018-11-25T02:55:25.328Z,0.00
2018-11-25T02:56:25.321Z,0.00
2018-11-25T02:57:25.314Z,0.00
2018-11-25T02:58:25.306Z,0.00
2018-11-25T02:59:25.300Z,0.00
2018-11-25T03:00:25.292Z,0.00
2018-11-25T03:01:25.281Z,0.00
2018-11-25T03:02:25.274Z,0.00
2018-11-25T03:03:25.267Z,0.00
2018-11-25T03:04:25.258Z,0.00
2018-11-25T03:05:25.252Z,0.00
2018-11-25T03:06:25.242Z,0.00
2018-11-25T03:07:25.236Z,0.00
2018-11-25T03:08:25.230Z,0.00
2018-11-25T03:09:25.220Z,0.00
2018-11-25T03:10:25.213Z,0.00
2018-11-25T03:11:25.203Z,0.00
2018-11-25T03:12:25.196Z,0.00
2018-11-25T03:13:25.190Z,0.00
2018-11-25T03:14:25.180Z,0.00
2018-11-25T03:15:25.173Z,0.00
2018-11-25T03:16:25.166Z,0.00
2018-11-25T03:17:25.158Z,0.00
2018-11-25T03:18:25.152Z,0.00
2018-11-25T03:19:25.142Z,0.00
2018-11-25T03:20:25.134Z,0.00
2018-11-25T03:21:25.127Z,0.00
2018-11-25T03:22:25.120Z,0.00
2018-11-25T03:23:25.111Z,0.00
2018-11-25T03:24:25.110Z,0.00
2018-11-25T03:25:25.097Z,0.00
2018-11-25T03:26:25.089Z,0.00
2018-11-25T03:27:25.080Z,0.00
2018-11-25T03:28:25.072Z,0.00
2018-11-25T03:29:25.070Z,0.00
2018-11-25T03:30:25.061Z,0.00
2018-11-25T03:31:25.050Z,0.00
2018-11-25T03:32:25.041Z,0.00
2018-11-25T03:33:25.034Z,0.00
2018-11-25T03:34:25.027Z,0.00
2018-11-25T03:35:25.018Z,0.00
2018-11-25T03:36:25.010Z,0.00
2018-11-25T03:37:25.002Z,0.00
2018-11-25T03:38:24.995Z,0.00
2018-11-25T03:39:24.986Z,0.00
2018-11-25T03:40:24.979Z,0.00
2018-11-25T03:41:24.970Z,0.00
2018-11-25T03:42:24.963Z,0.00
2018-11-25T03:43:24.955Z,0.00
2018-11-25T03:44:24.948Z,0.00
2018-11-25T03:45:24.940Z,0.00
2018-11-25T03:46:24.932Z,0.00
2018-11-25T03:47:24.925Z,0.00
2018-11-25T03:48:24.915Z,0.00
2018-11-25T03:49:24.909Z,0.00
2018-11-25T03:50:24.900Z,0.00
2018-11-25T03:51:24.892Z,0.00
2018-11-25T03:52:24.886Z,0.00
2018-11-25T03:53:24.877Z,0.00
2018-11-25T03:54:24.869Z,0.00
2018-11-25T03:55:24.860Z,0.00
2018-11-25T03:56:24.853Z,0.00
2018-11-25T03:57:24.844Z,0.00
2018-11-25T03:58:24.838Z,0.00
2018-11-25T03:59:24.829Z,0.00
2018-11-25T04:00:24.823Z,0.00
2018-11-25T04:01:24.814Z,0.00
2018-11-25T04:02:24.809Z,0.00
2018-11-25T04:03:24.798Z,0.00
2018-11-25T04:04:24.790Z,0.00
2018-11-25T04:05:24.783Z,0.00
2018-11-25T04:06:24.775Z,0.00
2018-11-25T04:07:24.766Z,0.00
2018-11-25T04:08:24.757Z,0.00
2018-11-25T04:09:24.751Z,0.00
2018-11-25T04:10:24.741Z,0.00
2018-11-25T04:11:24.734Z,0.00
2018-11-25T04:12:24.727Z,0.00
2018-11-25T04:13:24.720Z,0.00
2018-11-25T04:14:24.712Z,0.00
2018-11-25T04:15:24.703Z,0.00
2018-11-25T04:16:24.696Z,0.00
2018-11-25T04:17:24.688Z,0.00
2018-11-25T04:18:24.680Z,0.00
2018-11-25T04:19:24.675Z,0.00
2018-11-25T04:20:24.664Z,0.00
2018-11-25T04:21:24.657Z,0.00
2018-11-25T04:22:24.649Z,0.00
2018-11-25T04:23:24.640Z,0.00
2018-11-25T04:24:24.633Z,0.00
2018-11-25T04:25:24.624Z,0.00
2018-11-25T04:26:24.617Z,0.00
2018-11-25T04:27:24.609Z,0.00
2018-11-25T04:28:24.601Z,0.00
2018-11-25T04:29:24.594Z,0.00
2018-11-25T04:30:24.587Z,0.00
2018-11-25T04:31:24.578Z,0.00
2018-11-25T04:32:24.570Z,0.00
2018-11-25T04:33:24.562Z,0.00
2018-11-25T04:34:24.554Z,0.00
2018-11-25T04:35:24.546Z,0.00
2018-11-25T04:36:24.539Z,0.00
2018-11-25T04:37:24.536Z,0.00
2018-11-25T04:38:24.525Z,0.00
2018-11-25T04:39:24.514Z,0.00
2018-11-25T04:40:24.507Z,0.00
2018-11-25T04:41:24.500Z,0.00
2018-11-25T04:42:24.492Z,0.00
2018-11-25T04:43:24.483Z,0.00
2018-11-25T04:44:24.475Z,0.00
2018-11-25T04:45:24.471Z,0.00
2018-11-25T04:46:24.461Z,0.00
2018-11-25T04:47:24.452Z,0.00
2018-11-25T04:48:24.444Z,0.00
2018-11-25T04:49:24.437Z,0.00
2018-11-25T04:50:24.434Z,0.00
2018-11-25T04:51:24.427Z,0.00
2018-11-25T04:52:24.413Z,0.00
2018-11-25T04:53:24.405Z,0.00
2018-11-25T04:54:24.396Z,0.00
2018-11-25T04:55:24.389Z,0.00
2018-11-25T04:56:24.380Z,0.00
2018-11-25T04:57:24.373Z,0.00
2018-11-25T04:58:24.365Z,0.00
2018-11-25T04:59:24.357Z,0.00
2018-11-25T05:00:24.350Z,0.00
2018-11-25T05:01:24.341Z,0.00
2018-11-25T05:02:24.334Z,0.00
2018-11-25T05:03:24.327Z,0.00
2018-11-25T05:04:24.321Z,0.00
2018-11-25T05:05:24.311Z,0.00
2018-11-25T05:06:24.303Z,0.00
2018-11-25T05:07:24.294Z,0.00
2018-11-25T05:08:24.286Z,0.00
2018-11-25T05:09:24.278Z,0.00
2018-11-25T05:10:24.271Z,0.00
2018-11-25T05:11:24.267Z,0.00
2018-11-25T05:12:24.254Z,0.00
2018-11-25T05:13:24.247Z,0.00
2018-11-25T05:14:24.239Z,0.00
2018-11-25T05:15:24.231Z,0.00
2018-11-25T05:16:24.224Z,0.00
2018-11-25T05:17:24.216Z,0.00
2018-11-25T05:18:24.209Z,0.00
2018-11-25T05:19:24.200Z,0.00
2018-11-25T05:20:24.192Z,0.00
2018-11-25T05:21:24.185Z,0.00
2018-11-25T05:22:24.177Z,0.00
2018-11-25T05:23:24.169Z,0.00
2018-11-25T05:24:24.161Z,0.00
2018-11-25T05:25:24.152Z,0.00
2018-11-25T05:26:24.145Z,0.00
2018-11-25T05:27:24.136Z,0.00
2018-11-25T05:28:24.129Z,0.00
2018-11-25T05:29:24.121Z,0.00
2018-11-25T05:30:24.113Z,0.00
2018-11-25T05:31:24.105Z,0.00
2018-11-25T05:32:24.106Z,0.00
2018-11-25T05:33:24.092Z,0.00
2018-11-25T05:34:24.082Z,0.00
2018-11-25T05:35:24.074Z,0.00
2018-11-25T05:36:24.066Z,0.00
2018-11-25T05:37:24.061Z,0.00
2018-11-25T05:38:24.051Z,0.00
2018-11-25T05:39:24.043Z,0.00
2018-11-25T05:40:24.038Z,0.00
2018-11-25T05:41:24.027Z,0.00
2018-11-25T05:42:24.020Z,0.00
2018-11-25T05:43:24.011Z,0.00
2018-11-25T05:44:24.004Z,0.00
2018-11-25T05:45:23.998Z,0.00
2018-11-25T05:46:23.989Z,0.00
2018-11-25T05:47:23.980Z,0.00
2018-11-25T05:48:23.973Z,0.00
2018-11-25T05:49:23.969Z,0.00
2018-11-25T05:50:25.018Z,0.00
2018-11-25T05:51:23.949Z,0.00
2018-11-25T05:52:23.942Z,0.00
2018-11-25T05:53:23.933Z,0.00
2018-11-25T05:54:23.925Z,0.00
2018-11-25T05:55:23.920Z,0.00
2018-11-25T05:56:23.911Z,0.00
2018-11-25T05:57:23.904Z,0.00
2018-11-25T05:58:23.894Z,0.00
2018-11-25T05:59:23.891Z,0.00
2018-11-25T06:00:23.882Z,0.00
2018-11-25T06:01:23.872Z,0.00
2018-11-25T06:02:23.865Z,0.00
2018-11-25T06:03:23.856Z,0.00
2018-11-25T06:04:23.849Z,0.00
2018-11-25T06:05:23.841Z,0.00
2018-11-25T06:06:23.833Z,0.00
2018-11-25T06:07:23.825Z,0.00
2018-11-25T06:08:23.817Z,0.00
2018-11-25T06:09:23.811Z,0.00
2018-11-25T06:10:23.811Z,0.00
2018-11-25T06:11:23.795Z,0.00
2018-11-25T06:12:23.787Z,0.00
2018-11-25T06:13:23.778Z,0.00
2018-11-25T06:14:23.771Z,0.00
2018-11-25T06:15:23.763Z,0.00
2018-11-25T06:16:23.755Z,0.00
2018-11-25T06:17:23.749Z,0.00
2018-11-25T06:18:23.740Z,0.00
2018-11-25T06:19:23.732Z,0.00
2018-11-25T06:20:23.727Z,0.00
2018-11-25T06:21:23.717Z,0.00
2018-11-25T06:22:23.710Z,0.00
2018-11-25T06:23:23.700Z,0.00
2018-11-25T06:24:23.700Z,0.00
2018-11-25T06:25:23.686Z,0.00
2018-11-25T06:26:23.681Z,0.00
2018-11-25T06:27:23.669Z,0.00
2018-11-25T06:28:23.662Z,0.00
2018-11-25T06:29:23.658Z,0.00
2018-11-25T06:30:23.646Z,0.00
2018-11-25T06:31:23.638Z,0.00
2018-11-25T06:32:23.630Z,0.00
2018-11-25T06:33:23.623Z,0.00
2018-11-25T06:34:23.616Z,0.00
2018-11-25T06:35:23.608Z,0.00
2018-11-25T06:36:23.601Z,0.00
2018-11-25T06:37:23.591Z,0.00
2018-11-25T06:38:24.415Z,0.00
2018-11-25T06:39:23.577Z,0.00
2018-11-25T06:40:23.569Z,0.00
2018-11-25T06:41:23.562Z,0.00
2018-11-25T06:42:23.554Z,0.00
2018-11-25T06:43:23.547Z,0.00
2018-11-25T06:44:23.539Z,0.00
2018-11-25T06:45:23.531Z,0.00
2018-11-25T06:46:23.528Z,0.00
2018-11-25T06:47:23.516Z,0.00
2018-11-25T06:48:23.508Z,0.00
2018-11-25T06:49:23.499Z,0.00
2018-11-25T06:50:23.494Z,0.00
2018-11-25T06:51:23.483Z,0.00
2018-11-25T06:52:23.476Z,0.00
2018-11-25T06:53:23.470Z,0.00
2018-11-25T06:54:23.462Z,0.00
2018-11-25T06:55:23.453Z,0.00
2018-11-25T06:56:27.395Z,0.00
2018-11-25T06:57:23.439Z,0.00
2018-11-25T06:58:23.431Z,0.00
2018-11-25T06:59:23.423Z,0.00
2018-11-25T07:00:23.418Z,0.00
2018-11-25T07:01:23.410Z,0.00
2018-11-25T07:02:23.400Z,0.00
2018-11-25T07:03:23.395Z,0.00
2018-11-25T07:04:23.385Z,0.00
2018-11-25T07:05:23.377Z,0.00
2018-11-25T07:06:23.369Z,0.00
2018-11-25T07:07:23.365Z,0.00
2018-11-25T07:08:23.352Z,0.00
2018-11-25T07:09:23.346Z,0.00
2018-11-25T07:10:23.341Z,0.00
2018-11-25T07:11:23.329Z,0.00
2018-11-25T07:12:23.324Z,0.00
2018-11-25T07:13:23.315Z,0.00
2018-11-25T07:14:23.308Z,0.00
2018-11-25T07:15:23.299Z,0.00
2018-11-25T07:16:23.292Z,0.00
2018-11-25T07:17:23.284Z,0.00
2018-11-25T07:18:23.277Z,0.00
2018-11-25T07:19:23.268Z,0.00
2018-11-25T07:20:23.260Z,0.00
2018-11-25T07:21:23.254Z,0.00
2018-11-25T07:22:23.246Z,0.00
2018-11-25T07:23:23.237Z,0.00
2018-11-25T07:24:23.228Z,0.00
2018-11-25T07:25:23.223Z,0.00
2018-11-25T07:26:23.215Z,0.00
2018-11-25T07:27:23.258Z,0.00
2018-11-25T07:28:23.199Z,0.00
2018-11-25T07:29:23.191Z,0.00
2018-11-25T07:30:23.183Z,0.00
2018-11-25T07:31:23.177Z,0.00
2018-11-25T07:32:23.168Z,0.00
2018-11-25T07:33:23.161Z,0.00
2018-11-25T07:34:23.153Z,0.00
2018-11-25T07:35:23.144Z,0.00
2018-11-25T07:36:23.137Z,0.00
2018-11-25T07:37:23.130Z,0.00
2018-11-25T07:38:23.121Z,0.00
2018-11-25T07:39:23.113Z,0.00
2018-11-25T07:40:23.105Z,0.00
2018-11-25T07:41:23.098Z,0.00
2018-11-25T07:42:23.094Z,0.00
2018-11-25T07:43:23.131Z,0.00
2018-11-25T07:44:23.075Z,0.00
2018-11-25T07:45:30.002Z,0.00
2018-11-25T07:46:23.059Z,0.00
2018-11-25T07:47:23.050Z,0.00
2018-11-25T07:48:23.043Z,0.00
2018-11-25T07:49:23.035Z,0.00
2018-11-25T07:50:23.034Z,0.00
2018-11-25T07:51:23.019Z,0.00
2018-11-25T07:52:23.014Z,0.00
2018-11-25T07:53:23.006Z,0.00
2018-11-25T07:54:22.995Z,0.00
2018-11-25T07:55:22.987Z,0.00
2018-11-25T07:56:22.980Z,0.00
2018-11-25T07:57:22.972Z,0.00
2018-11-25T07:58:22.964Z,0.00
2018-11-25T07:59:22.957Z,0.00
2018-11-25T08:00:22.950Z,0.00
2018-11-25T08:01:22.941Z,0.00
2018-11-25T08:02:22.934Z,0.00
2018-11-25T08:03:22.925Z,0.00
2018-11-25T08:04:22.924Z,0.00
2018-11-25T08:05:22.910Z,0.00
2018-11-25T08:06:22.902Z,0.00
2018-11-25T08:07:22.894Z,0.00
2018-11-25T08:08:22.887Z,0.00
2018-11-25T08:09:22.878Z,0.00
2018-11-25T08:10:22.872Z,0.00
2018-11-25T08:11:22.861Z,0.00
2018-11-25T08:12:22.855Z,0.00
2018-11-25T08:13:22.848Z,0.00
2018-11-25T08:14:22.839Z,0.00
2018-11-25T08:15:22.831Z,0.00
2018-11-25T08:16:22.827Z,0.00
2018-11-25T08:17:22.816Z,0.00
2018-11-25T08:18:22.808Z,0.00
2018-11-25T08:19:22.801Z,0.00
2018-11-25T08:20:22.794Z,0.00
2018-11-25T08:21:22.785Z,0.00
2018-11-25T08:22:22.781Z,0.00
2018-11-25T08:23:22.770Z,0.00
2018-11-25T08:24:22.762Z,0.00
2018-11-25T08:25:22.756Z,0.00
2018-11-25T08:26:22.751Z,0.00
2018-11-25T08:27:22.737Z,0.00
2018-11-25T08:28:22.731Z,0.00
2018-11-25T08:29:22.722Z,0.00
2018-11-25T08:30:22.720Z,0.00
2018-11-25T08:31:22.707Z,0.00
2018-11-25T08:32:22.700Z,0.00
2018-11-25T08:33:22.692Z,0.00
2018-11-25T08:34:22.688Z,0.00
2018-11-25T08:35:22.678Z,0.00
2018-11-25T08:36:22.671Z,0.00
2018-11-25T08:37:22.662Z,0.00
2018-11-25T08:38:22.654Z,0.00
2018-11-25T08:39:22.646Z,0.00
2018-11-25T08:40:22.639Z,0.00
2018-11-25T08:41:22.633Z,0.00
2018-11-25T08:42:22.624Z,0.00
2018-11-25T08:43:22.616Z,0.00
2018-11-25T08:44:22.609Z,0.00
2018-11-25T08:45:22.604Z,0.00
2018-11-25T08:46:22.592Z,0.00
2018-11-25T08:47:22.584Z,0.00
2018-11-25T08:48:22.576Z,0.00
2018-11-25T08:49:22.569Z,0.00
2018-11-25T08:50:22.564Z,0.00
2018-11-25T08:51:22.553Z,0.00
2018-11-25T08:52:22.544Z,0.00
2018-11-25T08:53:22.540Z,0.00
2018-11-25T08:54:22.531Z,0.00
2018-11-25T08:55:22.521Z,0.00
2018-11-25T08:56:22.514Z,0.00
2018-11-25T08:57:22.510Z,0.00
2018-11-25T08:58:22.499Z,0.00
2018-11-25T08:59:22.495Z,0.00
2018-11-25T09:00:22.483Z,0.00
2018-11-25T09:01:22.479Z,0.00
2018-11-25T09:02:22.469Z,0.00
2018-11-25T09:03:22.460Z,0.00
2018-11-25T09:04:22.453Z,0.00
2018-11-25T09:05:22.452Z,0.00
2018-11-25T09:06:22.438Z,0.00
2018-11-25T09:07:22.430Z,0.00
2018-11-25T09:08:22.422Z,0.00
2018-11-25T09:09:22.415Z,0.00
2018-11-25T09:10:22.421Z,0.00
2018-11-25T09:11:22.400Z,0.00
2018-11-25T09:12:22.392Z,0.00
2018-11-25T09:13:22.385Z,0.00
2018-11-25T09:14:22.378Z,0.00
2018-11-25T09:15:22.369Z,0.00
2018-11-25T09:16:22.361Z,0.00
2018-11-25T09:17:22.360Z,0.00
2018-11-25T09:18:22.347Z,0.00
2018-11-25T09:19:22.339Z,0.00
2018-11-25T09:20:22.331Z,0.00
2018-11-25T09:21:22.328Z,0.19
2018-11-25T09:22:22.318Z,1.04
2018-11-25T09:23:22.311Z,1.79
2018-11-25T09:24:22.302Z,1.79
2018-11-25T09:25:22.295Z,1.89
2018-11-25T09:26:22.287Z,2.65
2018-11-25T09:27:22.279Z,2.65
2018-11-25T09:28:22.272Z,3.13
2018-11-25T09:29:22.270Z,3.97
2018-11-25T09:30:22.259Z,4.17
2018-11-25T09:31:22.250Z,4.55
2018-11-25T09:32:23.048Z,4.07
2018-11-25T09:33:22.239Z,4.17
2018-11-25T09:34:22.229Z,4.07
2018-11-25T09:35:22.225Z,4.45
2018-11-25T09:36:22.214Z,4.45
2018-11-25T09:37:22.210Z,4.64
2018-11-25T09:38:22.198Z,5.11
2018-11-25T09:39:22.194Z,4.93
2018-11-25T09:40:22.186Z,5.21
2018-11-25T09:41:22.184Z,5.30
2018-11-25T09:42:22.169Z,5.68
2018-11-25T09:43:22.167Z,5.78
2018-11-25T09:44:22.183Z,5.40
2018-11-25T09:45:22.146Z,5.78
2018-11-25T09:46:22.140Z,5.78
2018-11-25T09:47:22.130Z,6.16
2018-11-25T09:48:22.124Z,5.78
2018-11-25T09:49:22.118Z,6.73
2018-11-25T09:50:22.112Z,7.01
2018-11-25T09:51:22.101Z,7.48
2018-11-25T09:52:22.094Z,7.58
2018-11-25T09:53:22.086Z,8.06
2018-11-25T09:54:22.081Z,8.25
2018-11-25T09:55:22.070Z,8.06
2018-11-25T09:56:22.063Z,8.44
2018-11-25T09:57:22.058Z,8.81
2018-11-25T09:58:25.415Z,9.00
2018-11-25T09:59:22.046Z,9.10
2018-11-25T10:00:22.065Z,9.29
2018-11-25T10:01:22.028Z,9.76
2018-11-25T10:02:22.022Z,10.05
2018-11-25T10:03:22.015Z,10.05
2018-11-25T10:04:22.006Z,10.99
2018-11-25T10:05:21.998Z,11.37
2018-11-25T10:06:21.991Z,11.56
2018-11-25T10:07:21.984Z,11.56
2018-11-25T10:08:21.976Z,11.75
2018-11-25T10:09:21.969Z,12.04
2018-11-25T10:10:21.963Z,12.60
2018-11-25T10:11:21.953Z,12.89
2018-11-25T10:12:21.952Z,13.84
2018-11-25T10:13:21.984Z,14.40
2018-11-25T10:14:21.933Z,14.97
2018-11-25T10:15:21.925Z,15.36
2018-11-25T10:16:21.916Z,15.83
2018-11-25T10:17:21.910Z,15.92
2018-11-25T10:18:21.904Z,16.02
2018-11-25T10:19:21.895Z,16.20
2018-11-25T10:20:21.888Z,16.11
2018-11-25T10:21:21.883Z,16.58
2018-11-25T10:22:21.876Z,16.97
2018-11-25T10:23:21.865Z,17.44
2018-11-25T10:24:21.858Z,17.72
2018-11-25T10:25:21.852Z,18.01
2018-11-25T10:26:21.843Z,18.10
2018-11-25T10:27:21.840Z,17.35
2018-11-25T10:28:21.832Z,17.54
2018-11-25T10:29:21.823Z,16.87
2018-11-25T10:30:21.815Z,17.44
2018-11-25T10:31:21.807Z,17.35
2018-11-25T10:32:21.800Z,17.35
2018-11-25T10:33:21.793Z,17.54
2018-11-25T10:34:21.787Z,17.16
2018-11-25T10:35:21.778Z,17.25
2018-11-25T10:36:21.771Z,17.44
2018-11-25T10:37:21.763Z,17.06
2018-11-25T10:38:21.757Z,16.97
2018-11-25T10:39:21.750Z,16.68
2018-11-25T10:40:21.742Z,16.68
2018-11-25T10:41:21.734Z,16.58
2018-11-25T10:42:21.727Z,16.30
2018-11-25T10:43:21.718Z,16.78
2018-11-25T10:44:21.712Z,16.78
2018-11-25T10:45:21.704Z,16.68
2018-11-25T10:46:21.702Z,16.58
2018-11-25T10:47:21.689Z,17.16
2018-11-25T10:48:21.681Z,17.06
2018-11-25T10:49:22.478Z,17.35
2018-11-25T10:50:21.672Z,17.35
2018-11-25T10:51:21.660Z,17.25
2018-11-25T10:52:21.651Z,17.44
2018-11-25T10:53:21.645Z,17.35
2018-11-25T10:54:21.638Z,17.35
2018-11-25T10:55:21.630Z,17.25
2018-11-25T10:56:21.622Z,17.44
2018-11-25T10:57:21.616Z,17.35
2018-11-25T10:58:21.613Z,17.35
2018-11-25T10:59:21.602Z,17.35
2018-11-25T11:00:21.645Z,17.72
2018-11-25T11:01:21.624Z,17.54
2018-11-25T11:02:21.580Z,17.06
2018-11-25T11:03:21.571Z,16.97
2018-11-25T11:04:21.563Z,17.54
2018-11-25T11:05:21.557Z,16.78
2018-11-25T11:06:21.549Z,16.87
2018-11-25T11:07:21.542Z,17.44
2018-11-25T11:08:21.538Z,17.25
2018-11-25T11:09:21.526Z,16.87
2018-11-25T11:10:21.520Z,16.58
2018-11-25T11:11:21.510Z,16.30
2018-11-25T11:12:21.507Z,16.20
2018-11-25T11:13:21.497Z,15.36
2018-11-25T11:14:21.489Z,15.36
2018-11-25T11:15:21.481Z,15.36
2018-11-25T11:16:21.474Z,15.07
2018-11-25T11:17:21.468Z,14.88
2018-11-25T11:18:21.459Z,14.69
2018-11-25T11:19:21.450Z,14.88
2018-11-25T11:20:21.445Z,14.97
2018-11-25T11:21:21.436Z,14.97
2018-11-25T11:22:21.430Z,14.50
2018-11-25T11:23:21.421Z,15.07
2018-11-25T11:24:21.413Z,15.64
2018-11-25T11:25:21.409Z,15.26
2018-11-25T11:26:21.399Z,14.97
2018-11-25T11:27:21.391Z,14.59
2018-11-25T11:28:21.384Z,14.40
2018-11-25T11:29:21.377Z,14.40
2018-11-25T11:30:21.370Z,14.78
2018-11-25T11:31:21.360Z,14.69
2018-11-25T11:32:21.354Z,14.22
2018-11-25T11:33:22.000Z,14.50
2018-11-25T11:34:21.339Z,14.78
2018-11-25T11:35:21.378Z,15.36
2018-11-25T11:36:21.323Z,15.45
2018-11-25T11:37:21.316Z,15.92
2018-11-25T11:38:21.309Z,15.64
2018-11-25T11:39:21.301Z,15.73
2018-11-25T11:40:21.296Z,16.30
2018-11-25T11:41:21.288Z,16.11
2018-11-25T11:42:24.283Z,16.30
2018-11-25T11:43:21.270Z,16.58
2018-11-25T11:44:21.266Z,17.35
2018-11-25T11:45:21.257Z,17.25
2018-11-25T11:46:22.597Z,17.06
2018-11-25T11:47:21.242Z,17.44
2018-11-25T11:48:21.237Z,17.44
2018-11-25T11:49:21.228Z,17.72
2018-11-25T11:50:21.220Z,18.20
2018-11-25T11:51:25.605Z,18.29
2018-11-25T11:52:21.205Z,18.10
2018-11-25T11:53:21.197Z,18.10
2018-11-25T11:54:21.191Z,18.01
2018-11-25T11:55:21.192Z,18.39
2018-11-25T11:56:21.179Z,18.29
2018-11-25T11:57:21.171Z,17.91
2018-11-25T11:58:21.160Z,18.29
2018-11-25T11:59:21.152Z,18.10
2018-11-25T12:00:21.148Z,18.10
2018-11-25T12:01:21.137Z,18.10
2018-11-25T12:02:21.131Z,17.91
2018-11-25T12:03:26.315Z,18.58
2018-11-25T12:04:21.114Z,18.10
2018-11-25T12:05:21.107Z,18.01
2018-11-25T12:06:21.100Z,18.29
2018-11-25T12:07:21.092Z,18.77
2018-11-25T12:08:21.085Z,18.01
2018-11-25T12:09:21.077Z,18.10
2018-11-25T12:10:21.070Z,18.20
2018-11-25T12:11:21.062Z,17.44
2018-11-25T12:12:21.054Z,16.97
2018-11-25T12:13:21.049Z,17.54
2018-11-25T12:14:21.041Z,17.35
2018-11-25T12:15:21.037Z,17.44
2018-11-25T12:16:21.029Z,17.35
2018-11-25T12:17:21.018Z,16.97
2018-11-25T12:18:21.010Z,16.58
2018-11-25T12:19:21.002Z,16.30
2018-11-25T12:20:21.405Z,16.20
2018-11-25T12:21:20.987Z,15.36
2018-11-25T12:22:20.982Z,15.36
2018-11-25T12:23:20.973Z,15.17
2018-11-25T12:24:20.965Z,14.69
2018-11-25T12:25:20.962Z,15.17
2018-11-25T12:26:20.950Z,14.88
2018-11-25T12:27:20.941Z,14.78
2018-11-25T12:28:20.934Z,15.17
2018-11-25T12:29:20.925Z,15.36
2018-11-25T12:30:20.919Z,15.36
2018-11-25T12:31:20.914Z,15.36
2018-11-25T12:32:20.911Z,15.17
2018-11-25T12:33:20.897Z,14.88
2018-11-25T12:34:20.893Z,14.88
2018-11-25T12:35:20.884Z,14.69
2018-11-25T12:36:20.877Z,14.50
2018-11-25T12:37:20.866Z,14.40
2018-11-25T12:38:20.860Z,14.40
2018-11-25T12:39:21.884Z,14.59
2018-11-25T12:40:20.844Z,14.78
2018-11-25T12:41:20.835Z,14.88
2018-11-25T12:42:20.828Z,15.17
2018-11-25T12:43:20.820Z,15.17
2018-11-25T12:44:20.814Z,14.88
2018-11-25T12:45:20.806Z,15.17
2018-11-25T12:46:20.798Z,14.97
2018-11-25T12:47:20.790Z,14.88
2018-11-25T12:48:20.783Z,14.97
2018-11-25T12:49:20.776Z,14.88
2018-11-25T12:50:20.773Z,14.97
2018-11-25T12:51:20.762Z,15.17
2018-11-25T12:52:20.756Z,15.17
2018-11-25T12:53:20.745Z,15.45
2018-11-25T12:54:20.740Z,15.36
2018-11-25T12:55:20.731Z,15.83
2018-11-25T12:56:20.725Z,16.11
2018-11-25T12:57:20.716Z,15.73
2018-11-25T12:58:20.709Z,15.73
2018-11-25T12:59:20.700Z,16.02
2018-11-25T13:00:20.693Z,16.11
2018-11-25T13:01:20.686Z,16.20
2018-11-25T13:02:20.678Z,16.02
2018-11-25T13:03:20.670Z,16.20
2018-11-25T13:04:20.664Z,16.20
2018-11-25T13:05:20.656Z,16.30
2018-11-25T13:06:20.648Z,16.02
2018-11-25T13:07:20.639Z,16.49
2018-11-25T13:08:20.634Z,16.20
2018-11-25T13:09:20.625Z,16.11
2018-11-25T13:10:20.618Z,16.58
2018-11-25T13:11:20.608Z,16.58
2018-11-25T13:12:20.602Z,16.68